createdAt,value
2022-11-04T00:03:58.204Z,9.63
2022-11-04T00:09:01.282Z,9.85
2022-11-04T00:14:06.019Z,7.53
2022-11-04T00:19:08.596Z,6.70
2022-11-04T00:24:44.689Z,8.85
2022-11-04T00:29:49.071Z,8.40
2022-11-04T00:34:51.657Z,5.55
2022-11-04T00:39:54.253Z,7.35
2022-11-04T00:44:58.243Z,9.55
2022-11-04T00:50:00.843Z,8.27
2022-11-04T00:55:03.625Z,8.45
2022-11-04T01:00:09.189Z,8.32
2022-11-04T01:05:11.777Z,5.70
2022-11-04T01:10:14.416Z,8.77
2022-11-04T01:15:18.699Z,9.18
2022-11-04T01:20:21.402Z,5.07
2022-11-04T01:25:24.208Z,8.20
2022-11-04T01:30:28.119Z,8.13
2022-11-04T01:35:30.763Z,7.78
2022-11-04T01:40:37.498Z,10.35
2022-11-04T01:45:42.935Z,6.85
2022-11-04T01:50:45.787Z,9.15
2022-11-04T01:55:52.526Z,6.88
2022-11-04T02:00:56.548Z,5.93
2022-11-04T02:06:00.677Z,7.60
2022-11-04T02:11:05.063Z,6.30
2022-11-04T02:16:17.790Z,6.13
2022-11-04T02:22:01.996Z,10.80
2022-11-04T02:27:37.350Z,6.33
2022-11-04T02:33:06.738Z,8.70
2022-11-04T02:38:18.332Z,8.73
2022-11-04T02:43:26.542Z,6.93
2022-11-04T02:48:38.877Z,10.60
2022-11-04T02:53:46.604Z,11.07
2022-11-04T02:58:55.778Z,8.57
2022-11-04T03:04:05.285Z,11.25
2022-11-04T03:09:11.676Z,8.20
2022-11-04T03:14:16.657Z,11.40
2022-11-04T03:19:27.919Z,12.45
2022-11-04T03:24:32.398Z,8.95
2022-11-04T03:39:43.835Z,9.48
2022-11-04T03:44:47.952Z,10.80
2022-11-04T03:49:55.709Z,11.85
2022-11-04T03:54:58.536Z,7.82
2022-11-04T04:00:10.351Z,9.43
2022-11-04T04:05:21.265Z,8.48
2022-11-04T04:10:41.874Z,9.05
2022-11-04T04:15:50.663Z,10.68
2022-11-04T04:20:57.533Z,10.95
2022-11-04T04:26:23.587Z,10.52
2022-11-04T04:31:45.548Z,12.45
2022-11-04T04:36:54.302Z,13.48
2022-11-04T04:42:14.961Z,12.73
2022-11-04T04:47:21.887Z,9.73
2022-11-04T04:52:28.703Z,11.82
2022-11-04T04:57:31.493Z,9.27
2022-11-04T05:02:34.229Z,9.60
2022-11-04T05:07:38.376Z,9.38
2022-11-04T05:12:59.181Z,9.45
2022-11-04T05:18:03.261Z,7.35
2022-11-04T05:23:07.775Z,8.95
2022-11-04T05:33:13.676Z,6.15
2022-11-04T05:38:17.646Z,4.78
2022-11-04T05:43:20.510Z,2.42
2022-11-04T05:48:24.188Z,4.40
2022-11-04T05:58:35.994Z,4.18
2022-11-04T06:03:38.691Z,3.30
2022-11-04T06:08:45.283Z,3.63
2022-11-04T06:13:48.161Z,3.45
2022-11-04T06:18:50.807Z,5.38
2022-11-04T06:23:56.836Z,6.78
2022-11-04T06:28:59.488Z,4.60
2022-11-04T06:34:02.156Z,4.57
2022-11-04T06:39:06.546Z,3.58
2022-11-04T06:44:09.245Z,3.78
2022-11-04T06:49:14.576Z,4.30
2022-11-04T06:54:19.396Z,3.25
2022-11-04T06:59:22.062Z,2.70
2022-11-04T07:04:24.743Z,2.83
2022-11-04T07:09:28.670Z,2.90
2022-11-04T07:14:31.437Z,2.40
2022-11-04T07:19:34.123Z,2.53
2022-11-04T07:24:40.663Z,2.28
2022-11-04T07:29:43.284Z,3.58
2022-11-04T07:34:45.848Z,2.33
2022-11-04T07:39:49.735Z,2.28
2022-11-04T07:44:52.311Z,2.15
2022-11-04T07:50:11.324Z,4.97
2022-11-04T07:55:25.014Z,2.90
2022-11-04T08:00:29.627Z,4.78
2022-11-04T08:05:32.253Z,3.00
2022-11-04T08:10:39.532Z,4.10
2022-11-04T08:15:44.287Z,1.90
2022-11-04T08:20:50.024Z,2.40
2022-11-04T08:25:54.136Z,2.95
2022-11-04T08:31:01.248Z,2.60
2022-11-04T08:36:09.524Z,3.20
2022-11-04T08:41:15.549Z,4.22
2022-11-04T08:46:18.542Z,2.42
2022-11-04T08:51:23.822Z,1.80
2022-11-04T08:56:30.376Z,1.60
2022-11-04T09:01:36.807Z,1.08
2022-11-04T09:06:41.876Z,0.73
2022-11-04T09:12:06.296Z,1.35
2022-11-04T09:17:19.574Z,0.70
2022-11-04T09:22:22.338Z,1.13
2022-11-04T09:27:28.391Z,1.05
2022-11-04T09:32:33.280Z,1.10
2022-11-04T09:37:40.700Z,0.98
2022-11-04T09:43:55.420Z,0.93
2022-11-04T09:49:03.622Z,1.47
2022-11-04T09:54:29.536Z,0.82
2022-11-04T10:05:37.919Z,1.30
2022-11-04T10:11:03.680Z,1.60
2022-11-04T10:16:38.793Z,0.68
2022-11-04T10:22:01.618Z,0.90
2022-11-04T10:27:14.174Z,1.27
2022-11-04T10:37:56.124Z,0.63
2022-11-04T10:43:00.589Z,0.90
2022-11-04T10:53:48.767Z,3.13
2022-11-04T10:58:58.621Z,2.17
2022-11-04T11:04:29.446Z,3.22
2022-11-04T11:09:35.019Z,0.73
2022-11-04T11:14:40.063Z,2.60
2022-11-04T11:19:51.678Z,3.33
2022-11-04T11:24:54.395Z,1.95
2022-11-04T11:29:57.247Z,2.05
2022-11-04T11:35:04.316Z,2.70
2022-11-04T11:40:25.834Z,3.53
2022-11-04T11:45:29.157Z,1.30
2022-11-04T11:50:35.008Z,2.15
2022-11-04T11:55:39.205Z,5.90
2022-11-04T12:00:51.970Z,1.42
2022-11-04T12:11:29.277Z,1.52
2022-11-04T12:16:39.174Z,2.10
2022-11-04T12:21:48.169Z,2.33
2022-11-04T12:26:59.940Z,3.30
2022-11-04T12:32:10.289Z,2.25
2022-11-04T12:37:26.727Z,1.70
2022-11-04T12:42:44.807Z,1.42
2022-11-04T12:47:48.620Z,2.00
2022-11-04T12:53:14.312Z,1.60
2022-11-04T12:58:29.823Z,2.75
2022-11-04T13:03:37.543Z,0.68
2022-11-04T13:08:47.756Z,2.90
2022-11-04T13:14:02.200Z,1.10
2022-11-04T13:19:07.162Z,4.82
2022-11-04T13:24:22.199Z,2.22
2022-11-04T13:29:26.560Z,2.28
2022-11-04T13:34:49.403Z,2.63
2022-11-04T13:39:58.815Z,2.47
2022-11-04T13:45:12.128Z,4.65
2022-11-04T13:50:29.763Z,3.17
2022-11-04T13:55:35.529Z,2.35
2022-11-04T14:00:39.860Z,1.95
2022-11-04T14:06:12.557Z,2.22
2022-11-04T14:11:16.513Z,5.15
2022-11-04T14:16:40.150Z,1.75
2022-11-04T14:22:07.738Z,3.92
2022-11-04T14:27:25.587Z,2.70
2022-11-04T14:32:32.903Z,3.80
2022-11-04T14:37:37.666Z,3.40
2022-11-04T14:42:49.935Z,3.15
2022-11-04T14:48:15.551Z,1.95
2022-11-04T14:53:24.635Z,2.28
2022-11-04T14:58:33.875Z,2.38
2022-11-04T15:04:10.966Z,2.58
2022-11-04T15:09:01.663Z,3.50
2022-11-04T15:14:15.773Z,2.63
2022-11-04T15:19:28.214Z,3.40
2022-11-04T15:24:39.046Z,3.35
2022-11-04T15:30:24.720Z,2.80
2022-11-04T15:35:31.713Z,1.98
2022-11-04T15:41:00.592Z,2.58
2022-11-04T15:46:10.266Z,3.28
2022-11-04T15:51:17.220Z,4.93
2022-11-04T15:56:26.026Z,5.70
2022-11-04T16:01:32.804Z,5.82
2022-11-04T16:06:38.279Z,4.65
2022-11-04T16:11:41.336Z,3.53
2022-11-04T16:16:50.755Z,7.80
2022-11-04T16:22:01.909Z,12.13
2022-11-04T16:27:09.124Z,11.40
2022-11-04T16:32:19.727Z,4.38
2022-11-04T16:37:22.431Z,5.82
2022-11-04T16:42:25.316Z,10.02
2022-11-04T16:47:30.790Z,8.35
2022-11-04T16:52:33.462Z,9.43
2022-11-04T16:57:36.379Z,8.60
2022-11-04T17:02:41.640Z,8.05
2022-11-04T17:07:53.647Z,14.15
2022-11-04T17:12:58.157Z,17.25
2022-11-04T17:18:02.319Z,16.75
2022-11-04T17:23:05.074Z,13.35
2022-11-04T17:28:07.811Z,17.05
2022-11-04T17:33:14.650Z,15.18
2022-11-04T17:38:18.719Z,14.30
2022-11-04T17:43:38.881Z,7.47
2022-11-04T17:48:45.425Z,13.20
2022-11-04T17:53:49.400Z,13.20
2022-11-04T17:58:53.320Z,11.98
2022-11-04T18:03:58.074Z,15.52
2022-11-04T18:09:00.918Z,15.18
2022-11-04T18:14:03.625Z,9.40
2022-11-04T18:19:07.744Z,9.30
2022-11-04T18:24:10.753Z,7.35
2022-11-04T18:29:13.698Z,7.38
2022-11-04T18:34:19.930Z,6.78
2022-11-04T18:39:22.899Z,10.00
2022-11-04T18:44:25.496Z,9.68
2022-11-04T18:49:29.932Z,12.07
2022-11-04T18:54:32.771Z,12.93
2022-11-04T18:59:35.438Z,12.85
2022-11-04T19:04:39.474Z,15.15
2022-11-04T19:09:47.185Z,15.05
2022-11-04T19:14:50.702Z,12.52
2022-11-04T19:19:54.869Z,10.57
2022-11-04T19:24:57.523Z,7.95
2022-11-04T19:30:00.175Z,8.93
2022-11-04T19:35:04.299Z,9.25
2022-11-04T19:40:08.099Z,11.13
2022-11-04T19:45:10.861Z,7.72
2022-11-04T19:50:15.053Z,9.32
2022-11-04T19:55:17.801Z,7.13
2022-11-04T20:00:20.872Z,10.23
2022-11-04T20:05:25.183Z,7.80
2022-11-04T20:10:27.958Z,7.63
2022-11-04T20:15:30.957Z,5.93
2022-11-04T20:20:35.195Z,10.27
2022-11-04T20:25:38.202Z,8.43
2022-11-04T20:30:44.010Z,7.25
2022-11-04T20:35:48.406Z,7.63
2022-11-04T20:40:51.267Z,6.45
2022-11-04T20:45:54.063Z,7.60
2022-11-04T20:50:58.189Z,9.15
2022-11-04T20:56:00.885Z,5.95
2022-11-04T21:01:05.434Z,6.90
2022-11-04T21:06:11.638Z,7.97
2022-11-04T21:11:31.746Z,6.57
2022-11-04T21:16:35.887Z,5.35
2022-11-04T21:21:41.907Z,5.63
2022-11-04T21:26:45.601Z,6.35
2022-11-04T21:31:49.732Z,4.47
2022-11-04T21:36:54.011Z,9.82
2022-11-04T21:42:02.431Z,5.88
2022-11-04T21:47:05.268Z,6.00
2022-11-04T21:52:13.663Z,5.70
2022-11-04T21:57:17.728Z,7.53
2022-11-04T22:02:20.664Z,4.22
2022-11-04T22:07:54.438Z,7.75
2022-11-04T22:12:57.440Z,5.80
2022-11-04T22:18:00.441Z,8.77
2022-11-04T22:23:05.093Z,6.70
2022-11-04T22:28:07.954Z,7.80
2022-11-04T22:33:11.014Z,11.85
2022-11-04T22:38:15.798Z,5.68
2022-11-04T22:43:18.586Z,7.00
2022-11-04T22:48:21.746Z,11.55
2022-11-04T22:53:26.243Z,7.95
2022-11-04T23:03:31.901Z,7.93
2022-11-04T23:08:37.472Z,5.75
2022-11-04T23:14:06.625Z,7.55
2022-11-04T23:19:09.309Z,6.38
2022-11-04T23:24:30.897Z,9.90
2022-11-04T23:29:51.151Z,7.93
2022-11-04T23:35:11.397Z,10.90
2022-11-04T23:40:15.462Z,9.45
2022-11-04T23:45:36.170Z,9.25
2022-11-04T23:50:56.215Z,7.32
2022-11-04T23:56:18.611Z,7.43
